Time;durP1;ratioP1;P1;durP2;ratioP2;P2;SDS_P1;SDS_P2;PMS_P1;PMS_P2;Temp;Humidity;BMP_temperature;BMP_pressure;BME280_temperature;BME280_humidity;BME280_pressure;Samples;Min_cycle;Max_cycle;Signal;HPM_P1;HPM_P2
2021/12/12 00:01:33;;;;;;;16.77;9.05;;;;;;;4.82;100.00;101086.03;4971985;28;20553;-64
2021/12/12 00:04:11;;;;;;;13.73;8.73;;;;;;;4.86;100.00;101082.53;4972869;28;20122;-64
2021/12/12 00:06:59;;;;;;;15.38;8.10;;;;;;;4.83;100.00;101090.41;4975016;28;20134;-64
2021/12/12 00:09:33;;;;;;;16.85;7.60;;;;;;;4.83;100.00;101086.88;4991294;28;20038;-64
2021/12/12 00:12:03;;;;;;;19.92;9.63;;;;;;;4.83;100.00;101082.50;4991122;28;20149;-64
2021/12/12 00:14:32;;;;;;;13.88;8.80;;;;;;;4.79;100.00;101083.38;4989960;28;20193;-64
2021/12/12 00:16:58;;;;;;;19.08;10.75;;;;;;;4.77;100.00;101093.00;5011167;28;20105;-64
2021/12/12 00:19:26;;;;;;;15.63;8.95;;;;;;;4.76;100.00;101088.59;4990061;28;20080;-64
2021/12/12 00:21:55;;;;;;;23.02;9.10;;;;;;;4.75;100.00;101084.22;4980541;28;20037;-63
2021/12/12 00:24:21;;;;;;;13.65;9.23;;;;;;;4.74;100.00;101089.47;4990160;28;20034;-63
2021/12/12 00:26:50;;;;;;;14.82;8.48;;;;;;;4.71;100.00;101094.72;4987488;28;20046;-63
2021/12/12 00:29:18;;;;;;;14.45;7.93;;;;;;;4.65;100.00;101094.66;4977860;28;20033;-64
2021/12/12 00:31:47;;;;;;;18.50;9.10;;;;;;;4.73;100.00;101093.84;4971914;28;20049;-64
2021/12/12 00:34:13;;;;;;;16.75;9.50;;;;;;;4.97;100.00;101104.59;4985997;28;20050;-64
2021/12/12 00:36:41;;;;;;;14.50;8.50;;;;;;;4.94;100.00;101099.28;4984571;28;20494;-64
2021/12/12 00:39:15;;;;;;;15.95;8.38;;;;;;;4.88;100.00;101096.59;4985706;28;20023;-64
2021/12/12 00:41:44;;;;;;;15.70;8.55;;;;;;;4.82;100.00;101101.84;5001700;28;21646;-64
2021/12/12 00:44:14;;;;;;;24.45;10.85;;;;;;;4.74;100.00;101106.19;4980451;28;20046;-64
2021/12/12 00:46:40;;;;;;;20.45;11.68;;;;;;;4.73;100.00;101100.88;4970802;28;20527;-64
2021/12/12 00:49:06;;;;;;;23.55;13.50;;;;;;;4.61;100.00;101104.28;4973695;28;20111;-64
2021/12/12 00:51:35;;;;;;;32.42;16.83;;;;;;;4.41;100.00;101116.41;4975427;28;20399;-64
2021/12/12 00:54:01;;;;;;;22.50;12.63;;;;;;;4.24;100.00;101115.34;4971331;28;20038;-64
2021/12/12 00:56:26;;;;;;;20.42;13.07;;;;;;;4.19;100.00;101109.16;4980657;28;20027;-64
2021/12/12 00:58:53;;;;;;;21.67;10.07;;;;;;;4.19;100.00;101106.53;4990506;28;20495;-64
2021/12/12 01:01:26;;;;;;;19.52;11.32;;;;;;;4.22;100.00;101110.94;4983635;28;20451;-64
2021/12/12 01:04:03;;;;;;;26.08;11.50;;;;;;;4.24;100.00;101119.72;4976087;28;20378;-64
2021/12/12 01:06:28;;;;;;;22.35;11.00;;;;;;;4.23;100.00;101110.97;4971740;28;20026;-64
2021/12/12 01:08:59;;;;;;;21.50;10.85;;;;;;;4.25;100.00;101117.09;4988551;28;20042;-64
2021/12/12 01:11:24;;;;;;;18.60;10.60;;;;;;;4.28;100.00;101111.91;5009365;28;20780;-64
2021/12/12 01:13:51;;;;;;;23.60;13.30;;;;;;;4.44;100.00;101107.63;5002108;28;20054;-64
2021/12/12 01:16:23;;;;;;;19.10;12.00;;;;;;;4.44;100.00;101108.53;4974391;28;20037;-64
2021/12/12 01:18:55;;;;;;;22.80;11.27;;;;;;;4.43;100.00;101112.00;4970779;28;20089;-64
2021/12/12 01:21:28;;;;;;;17.90;11.10;;;;;;;4.43;100.00;101114.66;4971047;28;20050;-64
2021/12/12 01:23:59;;;;;;;20.63;11.82;;;;;;;4.43;100.00;101108.53;4971387;28;20437;-64
2021/12/12 01:26:28;;;;;;;19.63;10.82;;;;;;;4.33;100.00;101094.38;4981356;28;20109;-64
2021/12/12 01:28:56;;;;;;;19.63;10.40;;;;;;;4.45;100.00;101119.97;4989943;28;20044;-64
2021/12/12 01:31:26;;;;;;;20.35;10.00;;;;;;;4.47;100.00;101119.09;4991599;28;20028;-64
2021/12/12 01:34:09;;;;;;;15.38;9.10;;;;;;;4.50;100.00;101119.13;4988050;28;20022;-64
2021/12/12 01:37:23;;;;;;;19.55;10.48;;;;;;;4.67;100.00;101107.00;4993586;28;20454;-64
2021/12/12 01:39:31;;;;;;;;;;;;;;;4.73;100.00;101106.13;4991652;28;20034;-64
2021/12/12 01:42:01;;;;;;;17.65;9.27;;;;;;;4.73;100.00;101106.13;4993595;28;19914;-64
2021/12/12 01:44:51;;;;;;;15.77;9.15;;;;;;;4.76;100.00;101107.03;4993246;28;20034;-64
2021/12/12 01:47:35;;;;;;;20.85;9.85;;;;;;;4.78;100.00;101101.78;4984191;28;20479;-64
2021/12/12 01:50:05;;;;;;;20.70;10.68;;;;;;;4.69;100.00;101097.34;4994349;28;20516;-64
2021/12/12 01:52:31;;;;;;;17.60;8.68;;;;;;;4.70;100.00;101111.38;4994339;28;20474;-64
2021/12/12 01:55:25;;;;;;;22.08;9.73;;;;;;;4.69;100.00;101099.97;4992058;28;20479;-64
2021/12/12 01:58:07;;;;;;;18.95;10.27;;;;;;;4.64;100.00;101104.34;4984628;28;20092;-64
2021/12/12 02:00:41;;;;;;;14.80;8.02;;;;;;;4.60;100.00;101105.16;4993554;28;20041;-64
2021/12/12 02:03:10;;;;;;;16.17;8.90;;;;;;;4.57;100.00;101102.50;4994267;28;20561;-64
2021/12/12 02:05:37;;;;;;;16.85;9.10;;;;;;;4.55;100.00;101104.22;4988141;28;20379;-64
2021/12/12 02:08:07;;;;;;;19.67;9.40;;;;;;;4.50;100.00;101111.22;4976840;28;20497;-64
2021/12/12 02:10:43;;;;;;;18.20;9.88;;;;;;;4.44;100.00;101116.44;4987918;28;20034;-64
2021/12/12 02:13:12;;;;;;;17.25;9.98;;;;;;;4.50;100.00;101119.13;4993673;28;20034;-64
2021/12/12 02:15:39;;;;;;;19.15;9.43;;;;;;;4.49;100.00;101116.47;4990601;28;20145;-64
2021/12/12 02:18:13;;;;;;;15.60;9.98;;;;;;;4.50;100.00;101119.13;4987764;28;20027;-64
2021/12/12 02:20:54;;;;;;;17.73;8.85;;;;;;;4.58;100.00;101122.69;4976498;28;20023;-64
2021/12/12 02:23:35;;;;;;;17.33;9.10;;;;;;;4.57;100.00;101128.84;4975721;28;20022;-64
2021/12/12 02:37:04;;;;;;;20.88;9.95;;;;;;;4.51;100.00;101123.53;4978515;28;20085;-64
2021/12/12 02:39:30;;;;;;;20.75;9.95;;;;;;;4.50;100.00;101129.66;4995006;28;20441;-64
2021/12/12 02:42:03;;;;;;;26.30;12.45;;;;;;;4.51;100.00;101125.28;4989593;28;20054;-64
2021/12/12 02:44:32;;;;;;;25.07;11.03;;;;;;;4.43;100.00;101130.44;4984394;28;20081;-64
2021/12/12 02:47:00;;;;;;;23.73;10.77;;;;;;;4.47;100.00;101127.00;4983510;28;20475;-64
2021/12/12 02:49:40;;;;;;;29.83;11.23;;;;;;;4.47;100.00;101127.00;4972892;28;20106;-64
2021/12/12 02:52:14;;;;;;;27.50;11.30;;;;;;;4.49;100.00;101129.63;4973667;28;20023;-64
2021/12/12 02:54:40;;;;;;;24.55;12.95;;;;;;;4.45;100.00;101126.09;4975187;28;20027;-64
2021/12/12 02:57:07;;;;;;;25.42;10.98;;;;;;;4.43;100.00;101135.72;4973407;28;20074;-64
2021/12/12 02:59:34;;;;;;;17.02;10.82;;;;;;;4.41;100.00;101126.94;4974426;28;20058;-64
2021/12/12 03:02:07;;;;;;;18.00;10.43;;;;;;;4.37;100.00;101138.31;4977887;28;20029;-64
2021/12/12 03:04:34;;;;;;;19.38;10.82;;;;;;;4.37;100.00;101133.03;4972300;28;20045;-64
2021/12/12 03:07:02;;;;;;;20.50;10.90;;;;;;;4.37;100.00;101127.78;4972218;28;20059;-64
2021/12/12 03:09:40;;;;;;;16.77;10.43;;;;;;;4.33;100.00;101130.38;4975741;28;20023;-64
2021/12/12 03:12:11;;;;;;;21.50;11.30;;;;;;;4.34;100.00;101133.00;4992547;28;20029;-64
2021/12/12 03:14:38;;;;;;;22.35;11.95;;;;;;;4.35;100.00;101129.50;4973960;28;20062;-64
2021/12/12 03:17:09;;;;;;;19.05;11.00;;;;;;;4.32;100.00;101129.47;4975654;28;20030;-64
2021/12/12 03:19:36;;;;;;;23.15;12.23;;;;;;;4.23;100.00;101118.88;4976221;28;20034;-64
2021/12/12 03:22:05;;;;;;;21.02;10.95;;;;;;;4.31;100.00;101130.34;4972265;28;20337;-64
2021/12/12 03:24:31;;;;;;;19.67;11.10;;;;;;;4.29;100.00;101129.44;4973158;28;20062;-64
2021/12/12 03:27:03;;;;;;;19.70;10.93;;;;;;;4.29;100.00;101134.72;4979358;28;20018;-64
2021/12/12 03:29:29;;;;;;;18.38;10.77;;;;;;;4.26;100.00;101134.69;4991117;28;20508;-64
2021/12/12 03:32:00;;;;;;;22.23;11.73;;;;;;;4.23;100.00;101129.41;4981904;28;20030;-64
2021/12/12 03:34:30;;;;;;;19.02;11.15;;;;;;;4.22;100.00;101132.00;4994072;28;20126;-64
2021/12/12 03:36:55;;;;;;;22.02;11.38;;;;;;;4.17;100.00;101126.69;4987919;28;20031;-64
2021/12/12 03:39:28;;;;;;;22.10;11.15;;;;;;;4.16;100.00;101135.44;4994313;28;20022;-64
2021/12/12 03:41:57;;;;;;;21.10;11.20;;;;;;;4.09;100.00;101130.97;4991297;28;20433;-64
2021/12/12 03:44:29;;;;;;;20.85;11.80;;;;;;;4.09;100.00;101136.25;4981650;28;20277;-64
2021/12/12 03:46:58;;;;;;;19.25;10.50;;;;;;;4.36;100.00;101123.38;4990774;28;20197;-64
2021/12/12 03:49:24;;;;;;;19.90;10.68;;;;;;;4.46;100.00;101127.88;4982877;28;20038;-64
2021/12/12 03:51:54;;;;;;;21.38;12.23;;;;;;;4.52;100.00;101122.66;4976155;28;20039;-64
2021/12/12 03:54:20;;;;;;;19.52;10.23;;;;;;;4.51;100.00;101120.00;4972015;28;20101;-64
2021/12/12 03:56:46;;;;;;;18.83;10.77;;;;;;;4.48;100.00;101122.63;4988850;28;20160;-64
2021/12/12 03:59:13;;;;;;;14.45;9.68;;;;;;;4.39;100.00;101104.97;4990410;28;20026;-64
2021/12/12 04:01:50;;;;;;;15.82;9.23;;;;;;;4.40;100.00;101112.00;4991841;28;20371;-64
2021/12/12 04:04:25;;;;;;;16.65;8.93;;;;;;;4.36;100.00;101112.84;4987890;28;20030;-64
2021/12/12 04:06:52;;;;;;;17.25;10.13;;;;;;;4.32;100.00;101113.66;4991139;28;20498;-64
2021/12/12 04:09:19;;;;;;;15.25;9.20;;;;;;;4.31;100.00;101111.91;4988099;28;20124;-64
2021/12/12 04:11:53;;;;;;;16.83;9.82;;;;;;;4.25;100.00;101122.38;4978055;28;20022;-64
2021/12/12 04:14:19;;;;;;;17.02;9.27;;;;;;;4.21;100.00;101119.69;4971226;28;20411;-64
2021/12/12 04:16:50;;;;;;;21.88;10.68;;;;;;;4.23;100.00;101132.03;4975457;28;20026;-64
2021/12/12 04:19:15;;;;;;;16.38;8.88;;;;;;;4.21;100.00;101128.50;4974217;28;20030;-64
2021/12/12 04:21:41;;;;;;;19.05;9.57;;;;;;;4.12;100.00;101119.63;4971097;28;20411;-64
2021/12/12 04:24:09;;;;;;;20.15;9.50;;;;;;;4.18;100.00;101135.47;4971754;28;20506;-64
2021/12/12 04:26:40;;;;;;;19.77;8.50;;;;;;;4.13;100.00;101132.78;4978766;28;20110;-64
2021/12/12 04:29:25;;;;;;;18.83;9.18;;;;;;;4.08;100.00;101139.75;4971739;28;20499;-63
2021/12/12 04:31:54;;;;;;;25.02;9.65;;;;;;;4.00;100.00;101131.75;4972078;28;20053;-64
2021/12/12 04:34:23;;;;;;;19.80;9.73;;;;;;;3.99;100.00;101144.91;4973952;28;20026;-64
2021/12/12 04:36:50;;;;;;;18.77;9.40;;;;;;;3.96;100.00;101139.59;4983467;28;20121;-64
2021/12/12 04:39:25;;;;;;;17.55;8.43;;;;;;;3.93;100.00;101144.84;4989102;28;20446;-64
2021/12/12 04:41:54;;;;;;;16.20;8.95;;;;;;;3.85;100.00;101147.38;4988368;28;20513;-64
2021/12/12 04:44:27;;;;;;;14.18;8.10;;;;;;;3.81;100.00;101139.41;4992277;28;20387;-64
2021/12/12 04:49:55;;;;;;;14.30;7.65;;;;;;;3.76;100.00;101142.00;4990401;28;20033;-64
2021/12/12 04:52:30;;;;;;;14.80;7.28;;;;;;;3.75;100.00;101145.50;4983137;28;20398;-64
2021/12/12 04:55:14;;;;;;;16.27;7.88;;;;;;;3.77;100.00;101138.47;4975859;28;20030;-64
2021/12/12 04:57:46;;;;;;;12.85;7.72;;;;;;;3.74;100.00;101137.59;4973056;28;20096;-64
2021/12/12 05:00:18;;;;;;;13.63;8.45;;;;;;;3.77;100.00;101140.25;4983668;28;20030;-64
2021/12/12 05:03:12;;;;;;;13.93;7.38;;;;;;;3.77;100.00;101140.25;4989859;28;20022;-64
2021/12/12 05:05:47;;;;;;;14.65;7.45;;;;;;;3.81;100.00;101131.53;4991285;28;20034;-64
2021/12/12 05:08:40;;;;;;;15.38;7.95;;;;;;;3.85;100.00;101136.88;4980822;28;20030;-63
2021/12/12 05:11:13;;;;;;;14.00;7.60;;;;;;;3.84;100.00;101145.59;4973491;28;20487;-64
2021/12/12 05:13:55;;;;;;;13.60;8.82;;;;;;;3.90;100.00;101152.69;4976744;28;20081;-64
2021/12/12 05:16:27;;;;;;;14.07;8.10;;;;;;;3.84;100.00;101153.50;4993674;28;20042;-64
2021/12/12 05:19:01;;;;;;;13.20;7.57;;;;;;;3.83;100.00;101153.47;4991709;28;20038;-64
2021/12/12 05:21:31;;;;;;;15.65;7.57;;;;;;;3.85;100.00;101146.50;4990184;28;20022;-64
2021/12/12 05:24:01;;;;;;;17.17;8.40;;;;;;;3.83;100.00;101148.22;4993973;28;20197;-64
2021/12/12 05:26:35;;;;;;;19.33;8.60;;;;;;;3.88;100.00;101151.78;4994496;28;20026;-64
2021/12/12 05:29:05;;;;;;;20.40;8.25;;;;;;;3.91;100.00;101151.81;4989558;28;20081;-64
2021/12/12 05:31:32;;;;;;;13.82;8.13;;;;;;;3.91;100.00;101149.19;5013011;28;20105;-64
2021/12/12 05:33:58;;;;;;;20.13;8.52;;;;;;;3.92;100.00;101154.47;5010852;28;20513;-63
2021/12/12 05:36:25;;;;;;;13.52;7.78;;;;;;;3.90;100.00;101152.69;5012126;28;20068;-63
2021/12/12 05:38:52;;;;;;;14.48;8.45;;;;;;;3.58;100.00;101156.66;4982270;28;20041;-64
2021/12/12 05:41:20;;;;;;;15.80;8.43;;;;;;;3.39;100.00;101154.63;4974574;28;20077;-64
2021/12/12 05:43:47;;;;;;;18.75;8.65;;;;;;;3.34;100.00;101161.56;4978194;28;20029;-64
2021/12/12 05:46:18;;;;;;;19.77;9.10;;;;;;;3.30;100.00;101158.00;4977488;28;20030;-64
2021/12/12 05:48:44;;;;;;;18.30;7.88;;;;;;;3.60;100.00;101165.44;4975655;28;20030;-64
2021/12/12 05:51:10;;;;;;;15.57;9.10;;;;;;;3.73;100.00;101162.13;4993598;28;20027;-64
2021/12/12 05:53:36;;;;;;;13.13;8.55;;;;;;;3.74;100.00;101170.03;4992296;28;20378;-63
2021/12/12 05:56:03;;;;;;;16.45;7.78;;;;;;;3.71;100.00;101163.84;4983406;28;20026;-63
2021/12/12 05:58:30;;;;;;;12.25;6.20;;;;;;;3.71;100.00;101161.22;4994058;28;20109;-63
2021/12/12 06:01:02;;;;;;;13.13;6.97;;;;;;;3.73;100.00;101157.75;4988784;28;20031;-63
2021/12/12 06:03:31;;;;;;;14.15;6.93;;;;;;;3.76;100.00;101167.41;4978445;28;20031;-63
2021/12/12 06:05:58;;;;;;;9.80;5.53;;;;;;;3.78;100.00;101161.31;4973444;28;20102;-64
2021/12/12 06:08:25;;;;;;;11.52;7.10;;;;;;;3.87;100.00;101168.47;4974520;28;20113;-63
2021/12/12 06:10:53;;;;;;;16.98;7.70;;;;;;;3.90;100.00;101163.22;4975972;28;20553;-64
2021/12/12 06:13:20;;;;;;;22.85;9.35;;;;;;;3.92;100.00;101169.41;4976916;28;20376;-64
2021/12/12 06:15:53;;;;;;;28.90;13.20;;;;;;;3.98;100.00;101166.84;4975341;28;20126;-63
2021/12/12 06:18:21;;;;;;;37.92;16.00;;;;;;;4.03;100.00;101168.66;4987614;28;20038;-64
2021/12/12 06:20:47;;;;;;;38.72;15.20;;;;;;;4.07;100.00;101175.72;4991652;28;20065;-64
2021/12/12 06:23:14;;;;;;;31.50;14.10;;;;;;;4.11;100.00;101176.63;4983285;28;20065;-64
2021/12/12 06:25:40;;;;;;;20.40;10.48;;;;;;;4.12;100.00;101177.53;4989749;28;20438;-64
2021/12/12 06:28:12;;;;;;;20.33;7.65;;;;;;;4.12;100.00;101178.41;4992668;28;20046;-64
2021/12/12 06:30:37;;;;;;;16.20;7.93;;;;;;;4.10;100.00;101180.16;4989296;28;20014;-64
2021/12/12 06:33:04;;;;;;;21.10;8.80;;;;;;;4.14;100.00;101181.94;4985803;28;20026;-64
2021/12/12 06:35:30;;;;;;;16.17;9.30;;;;;;;4.18;100.00;101181.13;4992761;28;20026;-63
2021/12/12 06:38:01;;;;;;;18.58;7.55;;;;;;;4.15;100.00;101186.34;4993321;28;20029;-63
2021/12/12 06:40:27;;;;;;;14.88;7.15;;;;;;;4.14;100.00;101202.09;4986522;28;20530;-63
2021/12/12 06:42:54;;;;;;;15.25;6.72;;;;;;;4.16;100.00;101185.47;4977700;28;20089;-63
2021/12/12 06:45:20;;;;;;;14.40;6.95;;;;;;;4.30;100.00;101204.94;4975191;28;20394;-65
2021/12/12 06:47:46;;;;;;;14.50;7.72;;;;;;;4.36;100.00;101198.88;4997056;28;20023;-63
2021/12/12 06:50:12;;;;;;;15.20;7.78;;;;;;;4.30;100.00;101189.13;4992157;28;20085;-64
2021/12/12 06:52:39;;;;;;;23.25;6.47;;;;;;;4.44;100.00;101206.00;4982840;28;20487;-63
2021/12/12 06:55:08;;;;;;;11.35;5.88;;;;;;;4.48;100.00;101209.53;4977076;28;20457;-63
2021/12/12 06:57:34;;;;;;;13.98;7.47;;;;;;;4.51;100.00;101210.47;4974730;28;20037;-63
2021/12/12 07:00:00;;;;;;;13.82;6.10;;;;;;;4.53;100.00;101218.38;4984515;28;20030;-64
2021/12/12 07:02:26;;;;;;;13.63;6.43;;;;;;;4.58;100.00;101227.22;4991786;28;20517;-64
2021/12/12 07:04:52;;;;;;;9.57;5.55;;;;;;;4.54;100.00;101231.56;4989090;28;20041;-64
2021/12/12 07:07:18;;;;;;;14.15;6.25;;;;;;;4.58;100.00;101227.22;4992178;28;20025;-63
2021/12/12 07:09:46;;;;;;;11.15;5.60;;;;;;;4.55;100.00;101237.69;4988798;28;20425;-63
2021/12/12 07:12:15;;;;;;;10.30;5.22;;;;;;;4.56;100.00;101239.50;4977678;28;20080;-63
2021/12/12 07:14:43;;;;;;;14.38;6.40;;;;;;;4.61;100.00;101240.44;4972109;28;20662;-63
2021/12/12 07:17:09;;;;;;;12.75;6.50;;;;;;;4.65;100.00;101245.72;4979559;28;20072;-63
2021/12/12 07:19:37;;;;;;;10.25;4.95;;;;;;;4.55;100.00;101222.78;4993171;28;20023;-63
2021/12/12 07:22:03;;;;;;;13.80;6.20;;;;;;;4.66;100.00;101244.84;4989570;28;20034;-63
2021/12/12 07:24:30;;;;;;;14.15;6.97;;;;;;;4.71;100.00;101243.16;4978389;28;20109;-63
2021/12/12 07:26:59;;;;;;;11.68;6.25;;;;;;;4.76;100.00;101249.34;4971356;28;20030;-63
2021/12/12 07:29:26;;;;;;;10.93;5.70;;;;;;;4.76;100.00;101245.84;4986207;28;20386;-63
2021/12/12 07:31:53;;;;;;;10.57;5.75;;;;;;;4.79;100.00;101238.88;4972374;28;20386;-63
2021/12/12 07:34:18;;;;;;;8.93;5.40;;;;;;;4.83;100.00;101238.03;4974447;28;20054;-63
2021/12/12 07:36:49;;;;;;;12.57;5.93;;;;;;;4.85;100.00;101244.19;4993293;28;20054;-63
2021/12/12 07:39:16;;;;;;;10.00;5.50;;;;;;;4.86;100.00;101243.31;5010533;28;20029;-63
2021/12/12 07:41:44;;;;;;;13.52;6.03;;;;;;;4.82;100.00;101238.00;5002444;28;20026;-63
2021/12/12 07:44:12;;;;;;;11.38;5.50;;;;;;;4.87;100.00;101236.31;4989876;28;20113;-62
2021/12/12 07:46:38;;;;;;;12.35;5.10;;;;;;;4.92;99.97;101248.66;4991094;28;20053;-62
2021/12/12 07:49:04;;;;;;;13.38;6.72;;;;;;;4.98;100.00;101251.34;4982130;28;20175;-65
2021/12/12 07:51:30;;;;;;;10.55;5.38;;;;;;;4.96;99.67;101250.44;4991152;28;20034;-63
2021/12/12 07:53:57;;;;;;;12.40;4.82;;;;;;;4.92;99.34;101235.50;4987469;28;20486;-67
2021/12/12 07:56:28;;;;;;;12.05;5.80;;;;;;;5.00;99.38;101238.19;4974117;28;20031;-64
2021/12/12 07:58:56;;;;;;;10.75;6.28;;;;;;;4.99;99.27;101241.69;4971376;28;20034;-65
2021/12/12 08:01:22;;;;;;;11.27;4.70;;;;;;;4.97;98.58;101233.78;4978524;28;20033;-64
2021/12/12 08:03:50;;;;;;;10.25;5.22;;;;;;;5.09;97.95;101247.06;4971532;28;20027;-63
2021/12/12 08:06:15;;;;;;;9.07;3.70;;;;;;;5.16;97.63;101240.97;4972158;28;20022;-63
2021/12/12 08:08:42;;;;;;;8.38;4.50;;;;;;;5.20;97.20;101242.78;4973304;28;20033;-63
2021/12/12 08:11:09;;;;;;;10.70;4.70;;;;;;;5.26;97.03;101250.72;4983271;28;20030;-63
2021/12/12 08:13:35;;;;;;;32.83;17.40;;;;;;;5.35;96.74;101242.88;4990920;28;20049;-63
2021/12/12 08:16:05;;;;;;;33.42;18.30;;;;;;;5.43;96.27;101245.59;4990995;28;20053;-63
2021/12/12 08:18:32;;;;;;;17.13;8.85;;;;;;;5.42;96.25;101237.66;4986090;28;20170;-63
2021/12/12 08:21:00;;;;;;;12.00;6.15;;;;;;;5.39;95.83;101243.78;4975728;28;20645;-63
2021/12/12 08:23:25;;;;;;;11.32;6.30;;;;;;;5.46;95.87;101244.72;4972075;28;20030;-63
2021/12/12 08:25:54;;;;;;;11.35;5.03;;;;;;;5.46;95.06;101242.97;4977179;28;20436;-63
2021/12/12 08:28:21;;;;;;;11.95;5.45;;;;;;;5.41;94.93;101242.06;4971335;28;20105;-63
2021/12/12 08:30:48;;;;;;;11.52;5.75;;;;;;;5.46;94.67;101242.97;4972132;28;20379;-63
2021/12/12 08:33:14;;;;;;;10.90;4.22;;;;;;;5.51;94.39;101232.44;4974367;28;20487;-63
2021/12/12 08:35:43;;;;;;;11.23;4.45;;;;;;;5.51;94.33;101228.06;4985696;28;20035;-63
2021/12/12 08:38:12;;;;;;;12.38;6.75;;;;;;;5.58;94.14;101228.97;4994087;28;20030;-63
2021/12/12 08:40:46;;;;;;;12.25;6.10;;;;;;;5.68;94.21;101236.09;5005631;28;20026;-63
2021/12/12 08:43:14;;;;;;;9.63;4.68;;;;;;;5.80;94.43;101228.25;4981600;28;20081;-63
2021/12/12 08:45:51;;;;;;;8.52;4.68;;;;;;;5.86;94.40;101225.69;4980795;28;20394;-63
2021/12/12 08:48:19;;;;;;;11.50;5.95;;;;;;;5.79;94.11;101227.38;4979881;28;20504;-63
2021/12/12 08:50:49;;;;;;;14.02;5.40;;;;;;;5.84;94.12;101224.78;4995179;28;20390;-63
2021/12/12 08:53:17;;;;;;;12.10;5.28;;;;;;;5.88;94.14;101223.94;4994648;28;20129;-63
2021/12/12 08:55:48;;;;;;;10.48;5.00;;;;;;;5.97;93.23;101223.97;4985509;28;20062;-64
2021/12/12 08:58:17;;;;;;;6.80;3.95;;;;;;;5.98;91.87;101231.03;4977520;28;20550;-63
2021/12/12 09:01:03;;;;;;;9.75;4.55;;;;;;;6.02;92.69;101227.50;4979802;28;20027;-63
2021/12/12 09:03:54;;;;;;;8.13;4.75;;;;;;;6.11;91.68;101230.22;4996155;28;20042;-63
2021/12/12 09:06:26;;;;;;;7.93;4.03;;;;;;;6.14;91.99;101227.59;4986746;28;20032;-63
2021/12/12 09:08:57;;;;;;;7.43;3.35;;;;;;;6.23;91.12;101240.81;4983460;28;20026;-63
2021/12/12 09:11:40;;;;;;;6.78;3.65;;;;;;;6.27;91.38;101245.25;4976477;28;20034;-63
2021/12/12 09:14:18;;;;;;;8.38;3.58;;;;;;;6.32;89.78;101254.09;4983516;28;20043;-63
2021/12/12 09:17:17;;;;;;;5.07;3.20;;;;;;;6.43;90.59;101262.91;4997104;28;20165;-64
2021/12/12 09:19:55;;;;;;;16.90;4.00;;;;;;;6.46;89.99;101257.66;4997497;28;20441;-64
2021/12/12 09:22:35;;;;;;;5.32;3.55;;;;;;;6.49;90.09;101257.69;4991589;28;20535;-64
2021/12/12 09:25:14;;;;;;;6.43;3.58;;;;;;;6.53;88.73;101264.72;4995431;28;20091;-64
2021/12/12 09:27:52;;;;;;;6.13;3.53;;;;;;;6.60;89.17;101250.66;4996557;28;20051;-64
2021/12/12 09:30:20;;;;;;;10.18;4.07;;;;;;;6.50;88.15;101262.97;4990510;28;20037;-64
2021/12/12 09:33:04;;;;;;;11.57;3.45;;;;;;;6.54;88.35;101259.44;4997767;28;20129;-64
2021/12/12 09:35:42;;;;;;;12.00;3.50;;;;;;;6.56;88.74;101259.44;4997741;28;20037;-64
2021/12/12 09:38:17;;;;;;;7.50;4.20;;;;;;;6.66;88.66;101250.66;4994743;28;20030;-64
2021/12/12 09:41:11;;;;;;;8.80;3.67;;;;;;;6.68;88.46;101248.91;4997381;28;20038;-64
2021/12/12 09:44:14;;;;;;;4.82;2.85;;;;;;;6.72;87.68;101261.28;4997337;28;20038;-64
2021/12/12 09:47:25;;;;;;;5.63;3.22;;;;;;;6.73;87.82;101263.03;5000147;28;20566;-64
2021/12/12 09:53:51;;;;;;;6.38;3.15;;;;;;;6.70;87.01;101257.75;4991989;28;20088;-64
2021/12/12 09:56:35;;;;;;;7.05;3.28;;;;;;;6.69;87.06;101259.50;4992385;28;20077;-64
2021/12/12 09:59:13;;;;;;;4.88;2.83;;;;;;;6.67;87.40;101253.31;4983820;28;20564;-64
2021/12/12 10:01:48;;;;;;;7.50;3.35;;;;;;;6.74;87.37;101238.34;4974268;28;20027;-64
2021/12/12 10:04:35;;;;;;;7.22;3.72;;;;;;;6.78;86.88;101245.41;4974005;28;20035;-64
2021/12/12 10:07:10;;;;;;;8.23;3.60;;;;;;;6.47;88.14;101243.56;4981140;28;20403;-64
2021/12/12 10:09:51;;;;;;;6.03;2.85;;;;;;;6.34;90.01;101241.75;4983823;28;20023;-64
2021/12/12 10:12:21;;;;;;;7.78;3.47;;;;;;;6.43;90.44;101247.06;4980576;28;20032;-64
2021/12/12 10:14:58;;;;;;;6.30;3.25;;;;;;;6.57;90.79;101240.09;4992557;28;20047;-64
2021/12/12 10:17:34;;;;;;;8.18;3.83;;;;;;;6.58;89.53;101247.13;4984271;28;20033;-63
2021/12/12 10:20:26;;;;;;;9.23;3.67;;;;;;;6.51;89.42;101246.22;4993136;28;20446;-63
2021/12/12 10:23:10;;;;;;;6.07;3.58;;;;;;;6.59;89.58;101244.47;4976606;28;20048;-64
2021/12/12 10:25:41;;;;;;;5.43;3.45;;;;;;;6.96;87.41;101250.75;4989289;28;20431;-64
2021/12/12 10:28:19;;;;;;;6.88;3.25;;;;;;;7.10;85.86;101242.84;4991929;28;20510;-63
2021/12/12 10:31:22;;;;;;;8.18;4.30;;;;;;;7.21;85.30;101241.97;4985721;28;20023;-63
2021/12/12 10:33:57;;;;;;;7.80;3.95;;;;;;;7.25;84.57;101249.00;4973036;28;20031;-64
2021/12/12 10:36:30;;;;;;;5.45;3.08;;;;;;;7.27;83.16;101241.94;4980173;28;20034;-64
2021/12/12 10:39:13;;;;;;;8.75;3.38;;;;;;;7.27;83.61;101226.06;4989681;28;20452;-63
2021/12/12 10:41:40;;;;;;;6.32;3.40;;;;;;;7.36;83.46;101227.84;4978522;28;20030;-64
2021/12/12 10:44:13;;;;;;;6.22;4.25;;;;;;;7.35;83.55;101228.69;4972696;28;20029;-64
2021/12/12 10:46:55;;;;;;;7.63;4.15;;;;;;;7.31;84.22;101217.28;4974042;28;20023;-65
2021/12/12 10:49:35;;;;;;;7.30;4.63;;;;;;;7.42;83.44;101226.06;4987624;28;20030;-63
2021/12/12 10:52:16;;;;;;;17.35;5.72;;;;;;;7.35;82.20;101224.31;4975684;28;20022;-64
2021/12/12 10:54:55;;;;;;;8.50;3.55;;;;;;;7.36;82.21;101231.38;4974868;28;20022;-64
2021/12/12 10:57:30;;;;;;;6.07;3.30;;;;;;;7.38;82.45;101219.00;4977265;28;20030;-64
2021/12/12 11:00:05;;;;;;;7.55;3.58;;;;;;;7.31;81.97;101222.56;4972156;28;20062;-64
2021/12/12 11:02:36;;;;;;;11.55;4.47;;;;;;;7.29;81.84;101211.09;4979781;28;20734;-64
2021/12/12 11:05:10;;;;;;;10.30;4.50;;;;;;;7.29;81.27;101212.84;4972906;28;20027;-64
2021/12/12 11:07:44;;;;;;;13.55;5.50;;;;;;;7.38;81.27;101213.72;4973110;28;20019;-63
2021/12/12 11:10:18;;;;;;;9.00;4.80;;;;;;;7.52;81.21;101214.59;4985123;28;20034;-63
2021/12/12 11:12:55;;;;;;;11.40;4.45;;;;;;;7.63;81.11;101199.56;4973133;28;20031;-63
2021/12/12 11:15:26;;;;;;;9.48;4.40;;;;;;;7.67;80.79;101205.75;4972049;28;20069;-63
2021/12/12 11:18:01;;;;;;;13.00;5.05;;;;;;;7.66;80.37;101207.50;4972811;28;20029;-64
2021/12/12 11:20:34;;;;;;;11.82;3.83;;;;;;;7.65;80.11;101208.41;4986132;28;20034;-63
2021/12/12 11:23:03;;;;;;;;;;;;;;;7.66;80.57;101210.16;5011560;28;20429;-63
2021/12/12 11:25:41;;;;;;;14.15;5.10;;;;;;;7.60;80.64;101220.75;5012037;28;20350;-64
2021/12/12 11:28:32;;;;;;;10.20;4.47;;;;;;;7.55;80.14;101226.94;5004354;28;20045;-63
2021/12/12 11:31:04;;;;;;;12.95;5.15;;;;;;;7.43;80.65;101214.59;4954664;28;20121;-64
2021/12/12 11:33:33;;;;;;;11.50;4.40;;;;;;;7.42;80.27;101215.50;4989504;28;20372;-64
2021/12/12 11:36:00;;;;;;;11.48;4.32;;;;;;;7.43;81.33;101214.59;4988383;28;20031;-63
2021/12/12 11:38:40;;;;;;;16.00;5.13;;;;;;;7.55;81.60;101203.09;4977139;28;20050;-63
2021/12/12 11:41:16;;;;;;;18.75;5.53;;;;;;;7.51;80.68;101210.16;4992404;28;20037;-63
2021/12/12 11:44:02;;;;;;;10.90;5.00;;;;;;;7.09;82.37;101210.19;4988655;28;20034;-63
2021/12/12 11:46:38;;;;;;;10.30;4.43;;;;;;;7.42;81.70;101202.25;4994825;28;20049;-63
2021/12/12 11:49:19;;;;;;;14.85;4.60;;;;;;;7.49;81.18;101205.78;4988288;28;20027;-63
2021/12/12 11:51:50;;;;;;;15.68;4.75;;;;;;;7.52;81.70;101200.47;4980033;28;20026;-63
2021/12/12 11:54:35;;;;;;;11.57;5.28;;;;;;;7.62;81.38;101197.81;4972363;28;20073;-64
2021/12/12 11:57:07;;;;;;;14.82;5.35;;;;;;;7.67;81.36;101197.78;4977582;28;20023;-64
2021/12/12 12:00:09;;;;;;;21.65;9.85;;;;;;;7.74;81.09;101192.47;4971621;28;20034;-63